Time;durP1;ratioP1;P1;durP2;ratioP2;P2;SDS_P1;SDS_P2;PMS_P1;PMS_P2;Temp;Humidity;BMP_temperature;BMP_pressure;BME280_temperature;BME280_humidity;BME280_pressure;Samples;Min_cycle;Max_cycle;Signal;HPM_P1;HPM_P2
2022/11/24 00:01:41;;;;;;;22.48;11.30;;;;;;;;;;5033622;28;20056;-73
2022/11/24 00:04:07;;;;;;;28.05;11.60;;;;;;;;;;5032204;28;20041;-73
2022/11/24 00:06:34;;;;;;;31.10;12.15;;;;;;;;;;5033152;28;20515;-73
2022/11/24 00:09:01;;;;;;;28.08;11.35;;;;;;;;;;5032471;28;20048;-73
2022/11/24 00:11:31;;;;;;;27.63;11.07;;;;;;;;;;5031254;28;20049;-73
2022/11/24 00:13:58;;;;;;;29.35;11.40;;;;;;;;;;5033464;28;20045;-73
2022/11/24 00:16:25;;;;;;;28.23;10.98;;;;;;;;;;5033015;28;20045;-73
2022/11/24 00:18:52;;;;;;;30.65;9.93;;;;;;;;;;5033338;28;20037;-72
2022/11/24 00:21:19;;;;;;;25.73;9.88;;;;;;;;;;5025731;28;20044;-72
2022/11/24 00:23:45;;;;;;;22.27;9.35;;;;;;;;;;5033083;28;20041;-72
2022/11/24 00:26:13;;;;;;;22.58;10.18;;;;;;;;;;5033003;28;20104;-73
2022/11/24 00:28:39;;;;;;;22.92;9.98;;;;;;;;;;5027302;28;20049;-72
2022/11/24 00:31:14;;;;;;;27.23;9.23;;;;;;;;;;5032716;28;20520;-72
2022/11/24 00:33:40;;;;;;;23.02;8.65;;;;;;;;;;5033242;28;20045;-73
2022/11/24 00:36:06;;;;;;;26.92;8.70;;;;;;;;;;5031866;28;20048;-72
2022/11/24 00:38:32;;;;;;;26.83;8.82;;;;;;;;;;5032552;28;20068;-73
2022/11/24 00:40:59;;;;;;;26.55;8.25;;;;;;;;;;5033255;28;20045;-73
2022/11/24 00:43:25;;;;;;;24.02;8.52;;;;;;;;;;5018609;28;20523;-72
2022/11/24 00:45:51;;;;;;;29.65;8.15;;;;;;;;;;5031125;28;20509;-73
2022/11/24 00:48:17;;;;;;;24.92;8.25;;;;;;;;;;5027474;28;20045;-72
2022/11/24 00:50:43;;;;;;;27.15;8.27;;;;;;;;;;5028217;28;20054;-72
2022/11/24 00:53:09;;;;;;;24.35;8.10;;;;;;;;;;5000189;28;20048;-72
2022/11/24 00:55:35;;;;;;;28.80;7.68;;;;;;;;;;5025273;28;20045;-72
2022/11/24 00:58:02;;;;;;;24.60;7.93;;;;;;;;;;5019047;28;20041;-72
2022/11/24 01:00:28;;;;;;;24.70;7.55;;;;;;;;;;5012468;28;20125;-73
2022/11/24 01:02:54;;;;;;;26.27;7.68;;;;;;;;;;5023454;28;20053;-73
2022/11/24 01:05:20;;;;;;;28.23;7.80;;;;;;;;;;5015690;28;20500;-72
2022/11/24 01:07:47;;;;;;;27.95;7.30;;;;;;;;;;5016566;28;20053;-72
2022/11/24 01:10:13;;;;;;;25.55;7.50;;;;;;;;;;5021679;28;20038;-72
2022/11/24 01:12:39;;;;;;;30.23;8.30;;;;;;;;;;5026276;28;20087;-72
2022/11/24 01:15:05;;;;;;;25.13;7.05;;;;;;;;;;5036704;28;20467;-73
2022/11/24 01:17:31;;;;;;;33.03;7.78;;;;;;;;;;5028394;28;20095;-72
2022/11/24 01:19:57;;;;;;;29.88;7.47;;;;;;;;;;5036508;28;20042;-73
2022/11/24 01:22:26;;;;;;;29.38;7.57;;;;;;;;;;5036542;28;20056;-72
2022/11/24 01:24:52;;;;;;;22.77;7.20;;;;;;;;;;5036286;28;20048;-72
2022/11/24 01:27:18;;;;;;;24.42;6.82;;;;;;;;;;5028905;28;20041;-72
2022/11/24 01:29:44;;;;;;;28.92;7.32;;;;;;;;;;5047399;28;20049;-73
2022/11/24 01:32:10;;;;;;;32.17;6.82;;;;;;;;;;5046021;28;20048;-72
2022/11/24 01:34:36;;;;;;;25.00;6.43;;;;;;;;;;5035261;28;20503;-72
2022/11/24 01:37:02;;;;;;;24.02;6.75;;;;;;;;;;5036182;28;20045;-72
2022/11/24 01:39:28;;;;;;;28.85;7.45;;;;;;;;;;5036007;28;20123;-73
2022/11/24 01:41:55;;;;;;;25.52;6.22;;;;;;;;;;5036446;28;20184;-73
2022/11/24 01:44:28;;;;;;;27.52;6.88;;;;;;;;;;5034011;28;20057;-73
2022/11/24 01:46:57;;;;;;;25.17;6.75;;;;;;;;;;5016307;28;20046;-73
2022/11/24 01:49:42;;;;;;;28.55;6.93;;;;;;;;;;5016425;28;20050;-73
2022/11/24 01:52:19;;;;;;;27.60;6.88;;;;;;;;;;5016547;28;20104;-72
2022/11/24 01:54:48;;;;;;;33.35;6.50;;;;;;;;;;5016163;28;20049;-72
2022/11/24 01:57:14;;;;;;;23.13;5.93;;;;;;;;;;5021401;28;20038;-72
2022/11/24 01:59:40;;;;;;;31.73;6.97;;;;;;;;;;5018815;28;20046;-73
2022/11/24 02:02:07;;;;;;;26.92;6.15;;;;;;;;;;5024208;28;20124;-73
2022/11/24 02:04:33;;;;;;;29.48;6.10;;;;;;;;;;5034140;28;20049;-72
2022/11/24 02:07:01;;;;;;;28.73;6.45;;;;;;;;;;5033089;28;20511;-72
2022/11/24 02:09:33;;;;;;;28.15;6.30;;;;;;;;;;5030636;28;20041;-72
2022/11/24 02:12:01;;;;;;;28.70;5.82;;;;;;;;;;5018207;28;20099;-72
2022/11/24 02:14:28;;;;;;;26.98;6.28;;;;;;;;;;5019307;28;20405;-72
2022/11/24 02:16:54;;;;;;;31.40;6.03;;;;;;;;;;5021756;28;20508;-72
2022/11/24 02:19:28;;;;;;;29.58;6.03;;;;;;;;;;5015531;28;20050;-73
2022/11/24 02:21:54;;;;;;;28.65;6.63;;;;;;;;;;5014731;28;20045;-72
2022/11/24 02:24:24;;;;;;;29.15;6.07;;;;;;;;;;5016149;28;20045;-72
2022/11/24 02:26:51;;;;;;;28.80;6.05;;;;;;;;;;5029464;28;20037;-72
2022/11/24 02:29:18;;;;;;;28.70;6.28;;;;;;;;;;5023992;28;20128;-72
2022/11/24 02:31:46;;;;;;;26.65;5.82;;;;;;;;;;5035127;28;20555;-73
2022/11/24 02:34:13;;;;;;;32.60;6.07;;;;;;;;;;5035393;28;20102;-73
2022/11/24 02:36:39;;;;;;;30.38;6.10;;;;;;;;;;5022706;28;20054;-72
2022/11/24 02:39:09;;;;;;;26.67;5.57;;;;;;;;;;5015272;28;20053;-73
2022/11/24 02:41:35;;;;;;;25.63;5.97;;;;;;;;;;5015086;28;20524;-72
2022/11/24 02:44:01;;;;;;;30.42;6.43;;;;;;;;;;5013388;28;20045;-73
2022/11/24 02:46:27;;;;;;;27.38;5.10;;;;;;;;;;5025528;28;20049;-72
2022/11/24 02:48:53;;;;;;;27.75;5.63;;;;;;;;;;5014947;28;20501;-73
2022/11/24 02:51:20;;;;;;;35.55;6.10;;;;;;;;;;5014992;28;20046;-73
2022/11/24 02:53:46;;;;;;;30.35;5.72;;;;;;;;;;5027628;28;20504;-72
2022/11/24 02:56:12;;;;;;;25.60;5.13;;;;;;;;;;5035886;28;20056;-72
2022/11/24 02:58:38;;;;;;;27.45;6.15;;;;;;;;;;5033376;28;20045;-72
2022/11/24 03:01:04;;;;;;;28.75;5.88;;;;;;;;;;5033568;28;20045;-72
2022/11/24 03:03:30;;;;;;;27.13;5.65;;;;;;;;;;5029942;28;20107;-72
2022/11/24 03:05:56;;;;;;;23.13;4.38;;;;;;;;;;5033059;28;20045;-72
2022/11/24 03:08:23;;;;;;;24.98;5.13;;;;;;;;;;5032187;28;20063;-72
2022/11/24 03:10:49;;;;;;;26.42;6.07;;;;;;;;;;5024893;28;20040;-73
2022/11/24 03:13:15;;;;;;;27.52;5.80;;;;;;;;;;5030120;28;20492;-72
2022/11/24 03:15:41;;;;;;;23.58;5.05;;;;;;;;;;5020896;28;20510;-73
2022/11/24 03:18:07;;;;;;;25.42;5.15;;;;;;;;;;5033361;28;20476;-72
2022/11/24 03:20:33;;;;;;;24.77;5.85;;;;;;;;;;5018043;28;20133;-72
2022/11/24 03:22:59;;;;;;;28.75;5.10;;;;;;;;;;5032589;28;20045;-72
2022/11/24 03:25:25;;;;;;;24.35;5.22;;;;;;;;;;5033418;28;20068;-72
2022/11/24 03:27:52;;;;;;;23.25;5.38;;;;;;;;;;5028449;28;20049;-72
2022/11/24 03:30:18;;;;;;;29.85;5.20;;;;;;;;;;5013600;28;20628;-72
2022/11/24 03:32:44;;;;;;;25.48;5.30;;;;;;;;;;5020335;28;20037;-73
2022/11/24 03:35:10;;;;;;;31.83;4.97;;;;;;;;;;5032848;28;20053;-72
2022/11/24 03:37:37;;;;;;;22.95;4.35;;;;;;;;;;5030973;28;20049;-72
2022/11/24 03:40:03;;;;;;;31.15;5.57;;;;;;;;;;5033036;28;20121;-72
2022/11/24 03:42:29;;;;;;;28.90;5.40;;;;;;;;;;5030712;28;20480;-72
2022/11/24 03:44:55;;;;;;;29.00;4.70;;;;;;;;;;5018011;28;20107;-72
2022/11/24 03:47:21;;;;;;;33.40;5.60;;;;;;;;;;5031102;28;20060;-73
2022/11/24 03:49:47;;;;;;;27.95;4.85;;;;;;;;;;5032726;28;20450;-72
2022/11/24 03:52:14;;;;;;;27.40;4.63;;;;;;;;;;5032804;28;20119;-72
2022/11/24 03:54:41;;;;;;;26.38;5.45;;;;;;;;;;5032741;28;20407;-72
2022/11/24 03:57:07;;;;;;;27.05;5.15;;;;;;;;;;5033064;28;20530;-72
2022/11/24 03:59:33;;;;;;;21.75;4.65;;;;;;;;;;5032425;28;20071;-72
2022/11/24 04:01:59;;;;;;;30.80;4.63;;;;;;;;;;5030904;28;20038;-72
2022/11/24 04:04:25;;;;;;;23.40;4.45;;;;;;;;;;5031096;28;20081;-72
2022/11/24 04:06:51;;;;;;;20.23;4.05;;;;;;;;;;5032150;28;20041;-72
2022/11/24 04:09:17;;;;;;;24.88;4.00;;;;;;;;;;5012842;28;20049;-72
2022/11/24 04:14:28;;;;;;;30.10;4.20;;;;;;;;;;5053334;28;20053;-73
2022/11/24 04:16:54;;;;;;;22.33;4.22;;;;;;;;;;5041763;28;20041;-73
2022/11/24 04:19:20;;;;;;;23.20;4.75;;;;;;;;;;5014552;28;20052;-73
2022/11/24 04:21:46;;;;;;;23.27;4.03;;;;;;;;;;5022364;28;20048;-72
2022/11/24 04:24:13;;;;;;;28.83;5.57;;;;;;;;;;5033038;28;20052;-73
2022/11/24 04:26:39;;;;;;;21.73;4.18;;;;;;;;;;5015199;28;20049;-72
2022/11/24 04:29:05;;;;;;;26.15;4.40;;;;;;;;;;5023596;28;20045;-72
2022/11/24 04:31:31;;;;;;;26.42;4.20;;;;;;;;;;5027315;28;20447;-72
2022/11/24 04:33:57;;;;;;;23.67;4.20;;;;;;;;;;5034119;28;20080;-72
2022/11/24 04:36:24;;;;;;;26.55;4.18;;;;;;;;;;5015210;28;20050;-72
2022/11/24 04:38:51;;;;;;;28.92;4.22;;;;;;;;;;5031870;28;20251;-72
2022/11/24 04:41:17;;;;;;;29.58;4.95;;;;;;;;;;5032823;28;20519;-72
2022/11/24 04:43:43;;;;;;;23.05;3.97;;;;;;;;;;5032545;28;20496;-72
2022/11/24 04:46:11;;;;;;;26.88;4.53;;;;;;;;;;5032428;28;20060;-73
2022/11/24 04:48:37;;;;;;;28.45;4.53;;;;;;;;;;5032931;28;20048;-72
2022/11/24 04:51:06;;;;;;;24.88;4.20;;;;;;;;;;5031929;28;20041;-72
2022/11/24 04:53:32;;;;;;;20.55;3.90;;;;;;;;;;5032607;28;20037;-73
2022/11/24 04:55:58;;;;;;;26.85;4.15;;;;;;;;;;5033221;28;20050;-73
2022/11/24 04:58:24;;;;;;;28.48;4.10;;;;;;;;;;5032050;28;20057;-72
2022/11/24 05:00:50;;;;;;;23.63;3.80;;;;;;;;;;5032730;28;20088;-73
2022/11/24 05:03:16;;;;;;;24.10;4.43;;;;;;;;;;5031759;28;20050;-72
2022/11/24 05:05:42;;;;;;;25.48;4.20;;;;;;;;;;5028035;28;20042;-72
2022/11/24 05:08:08;;;;;;;24.08;4.63;;;;;;;;;;4995292;28;20054;-72
2022/11/24 05:10:34;;;;;;;23.70;3.92;;;;;;;;;;5018948;28;20045;-72
2022/11/24 05:13:01;;;;;;;30.58;4.93;;;;;;;;;;5025122;28;20510;-72
2022/11/24 05:15:27;;;;;;;29.73;4.28;;;;;;;;;;5031071;28;20056;-72
2022/11/24 05:17:54;;;;;;;27.33;3.65;;;;;;;;;;5030909;28;20588;-72
2022/11/24 05:20:20;;;;;;;31.83;4.38;;;;;;;;;;5030545;28;20045;-72
2022/11/24 05:22:46;;;;;;;21.75;3.80;;;;;;;;;;5024443;28;20042;-72
2022/11/24 05:25:13;;;;;;;20.00;4.15;;;;;;;;;;5030179;28;20053;-72
2022/11/24 05:27:39;;;;;;;24.27;4.15;;;;;;;;;;5031656;28;20045;-73
2022/11/24 05:30:05;;;;;;;24.50;3.63;;;;;;;;;;5030298;28;20408;-72
2022/11/24 05:32:31;;;;;;;31.67;4.28;;;;;;;;;;5028365;28;20060;-72
2022/11/24 05:34:59;;;;;;;22.48;3.92;;;;;;;;;;5019722;28;20139;-72
2022/11/24 05:37:27;;;;;;;23.35;3.67;;;;;;;;;;5012389;28;20054;-73
2022/11/24 05:39:53;;;;;;;24.67;4.13;;;;;;;;;;5012917;28;20042;-72
2022/11/24 05:45:04;;;;;;;21.75;3.80;;;;;;;;;;5015863;28;20041;-73
2022/11/24 05:47:30;;;;;;;27.58;4.38;;;;;;;;;;5027083;28;20057;-72
2022/11/24 05:49:57;;;;;;;17.92;3.70;;;;;;;;;;5031324;28;20042;-72
2022/11/24 05:52:23;;;;;;;30.00;4.25;;;;;;;;;;5035985;28;20048;-73
2022/11/24 05:54:49;;;;;;;23.95;3.75;;;;;;;;;;5018063;28;20100;-72
2022/11/24 05:57:16;;;;;;;27.63;3.90;;;;;;;;;;5035871;28;20045;-72
2022/11/24 05:59:42;;;;;;;22.65;4.18;;;;;;;;;;5030801;28;20104;-72
2022/11/24 06:02:08;;;;;;;32.13;5.28;;;;;;;;;;5016576;28;20517;-72
2022/11/24 06:04:35;;;;;;;26.00;4.32;;;;;;;;;;5035519;28;20049;-73
2022/11/24 06:07:01;;;;;;;28.63;4.35;;;;;;;;;;5034805;28;20084;-72
2022/11/24 06:09:27;;;;;;;24.65;3.97;;;;;;;;;;5017767;28;20045;-73
2022/11/24 06:11:53;;;;;;;24.92;4.05;;;;;;;;;;5035505;28;20041;-72
2022/11/24 06:14:20;;;;;;;28.52;4.00;;;;;;;;;;5035493;28;20057;-72
2022/11/24 06:16:46;;;;;;;29.45;4.43;;;;;;;;;;5032636;28;20532;-72
2022/11/24 06:19:12;;;;;;;24.77;4.30;;;;;;;;;;5035503;28;20432;-73
2022/11/24 06:21:38;;;;;;;24.13;3.53;;;;;;;;;;5035548;28;20045;-73
2022/11/24 06:24:04;;;;;;;30.42;4.25;;;;;;;;;;5029663;28;20050;-72
2022/11/24 06:26:30;;;;;;;25.30;4.28;;;;;;;;;;5033680;28;20049;-72
2022/11/24 06:28:56;;;;;;;27.17;3.80;;;;;;;;;;5032888;28;20048;-72
2022/11/24 06:31:22;;;;;;;26.83;4.45;;;;;;;;;;5034917;28;20044;-72
2022/11/24 06:33:48;;;;;;;23.05;3.90;;;;;;;;;;5020087;28;20116;-72
2022/11/24 06:36:15;;;;;;;27.15;4.32;;;;;;;;;;5021987;28;20052;-73
2022/11/24 06:38:41;;;;;;;20.73;4.32;;;;;;;;;;5033436;28;20042;-72
2022/11/24 06:41:09;;;;;;;25.20;4.15;;;;;;;;;;5033728;28;20046;-72
2022/11/24 06:43:35;;;;;;;20.23;4.53;;;;;;;;;;5021474;28;20053;-72
2022/11/24 06:46:01;;;;;;;24.88;4.10;;;;;;;;;;5017596;28;20104;-73
2022/11/24 06:48:28;;;;;;;28.48;4.20;;;;;;;;;;5034837;28;20050;-73
2022/11/24 06:50:58;;;;;;;21.10;4.10;;;;;;;;;;5028498;28;20109;-72
2022/11/24 06:53:24;;;;;;;23.50;4.50;;;;;;;;;;5015053;28;20052;-72
2022/11/24 06:55:50;;;;;;;24.77;4.15;;;;;;;;;;5018620;28;20049;-72
2022/11/24 06:58:16;;;;;;;24.85;4.50;;;;;;;;;;5033792;28;20451;-72
2022/11/24 07:00:42;;;;;;;22.35;4.00;;;;;;;;;;5034475;28;20059;-72
2022/11/24 07:03:12;;;;;;;21.83;4.47;;;;;;;;;;5028620;28;20069;-72
2022/11/24 07:05:38;;;;;;;27.90;4.88;;;;;;;;;;5033257;28;20049;-73
2022/11/24 07:08:04;;;;;;;26.25;4.28;;;;;;;;;;5025841;28;20045;-73
2022/11/24 07:10:30;;;;;;;24.40;4.40;;;;;;;;;;5013518;28;20254;-73
2022/11/24 07:12:56;;;;;;;33.40;4.68;;;;;;;;;;5012813;28;20038;-73
2022/11/24 07:15:22;;;;;;;26.60;4.32;;;;;;;;;;5013845;28;20053;-72
2022/11/24 07:17:48;;;;;;;28.92;4.25;;;;;;;;;;5024683;28;20397;-73
2022/11/24 07:20:15;;;;;;;27.02;4.47;;;;;;;;;;5014011;28;20053;-72
2022/11/24 07:22:41;;;;;;;25.42;4.30;;;;;;;;;;5012906;28;20538;-73
2022/11/24 07:25:08;;;;;;;32.00;4.93;;;;;;;;;;5020817;28;20512;-73
2022/11/24 07:27:34;;;;;;;25.85;4.45;;;;;;;;;;5033261;28;20061;-73
2022/11/24 07:30:01;;;;;;;23.10;4.13;;;;;;;;;;5033293;28;20045;-73
2022/11/24 07:32:27;;;;;;;26.23;5.10;;;;;;;;;;5031593;28;20408;-72
2022/11/24 07:34:53;;;;;;;31.73;5.70;;;;;;;;;;5033413;28;20125;-73
2022/11/24 07:37:19;;;;;;;31.55;5.03;;;;;;;;;;5032610;28;20041;-72
2022/11/24 07:39:45;;;;;;;32.42;5.05;;;;;;;;;;5020219;28;20048;-73
2022/11/24 07:42:11;;;;;;;24.08;4.57;;;;;;;;;;5021510;28;20042;-73
2022/11/24 07:44:37;;;;;;;22.23;4.70;;;;;;;;;;5031305;28;20492;-72
2022/11/24 07:47:03;;;;;;;29.48;5.10;;;;;;;;;;5023030;28;20052;-72
2022/11/24 07:49:29;;;;;;;25.08;5.22;;;;;;;;;;5028363;28;20488;-73
2022/11/24 07:51:55;;;;;;;23.02;5.20;;;;;;;;;;5023597;28;20413;-72
2022/11/24 07:54:21;;;;;;;23.38;4.80;;;;;;;;;;5018670;28;20512;-72
2022/11/24 07:56:48;;;;;;;29.70;5.43;;;;;;;;;;5021239;28;20116;-72
2022/11/24 07:59:14;;;;;;;28.50;5.28;;;;;;;;;;5027496;28;20065;-73
2022/11/24 08:01:40;;;;;;;27.63;6.72;;;;;;;;;;4996050;28;20076;-73
2022/11/24 08:04:06;;;;;;;35.13;5.82;;;;;;;;;;5024572;28;20108;-73
2022/11/24 08:06:32;;;;;;;28.88;5.10;;;;;;;;;;5018154;28;20089;-73
2022/11/24 08:08:59;;;;;;;28.92;5.53;;;;;;;;;;5031587;28;20492;-72
2022/11/24 08:11:25;;;;;;;24.98;5.13;;;;;;;;;;5032642;28;20041;-73
2022/11/24 08:13:51;;;;;;;27.02;5.68;;;;;;;;;;5021077;28;20060;-73
2022/11/24 08:16:18;;;;;;;26.90;5.43;;;;;;;;;;5012116;28;20168;-72
2022/11/24 08:18:48;;;;;;;28.77;5.50;;;;;;;;;;5022350;28;20041;-73
2022/11/24 08:21:14;;;;;;;24.13;5.30;;;;;;;;;;5021889;28;20042;-73
2022/11/24 08:23:40;;;;;;;27.92;5.90;;;;;;;;;;5022162;28;20094;-73
2022/11/24 08:26:09;;;;;;;27.08;6.05;;;;;;;;;;5022111;28;20037;-73
2022/11/24 08:28:35;;;;;;;24.45;6.03;;;;;;;;;;5014081;28;20084;-73
2022/11/24 08:31:12;;;;;;;25.95;5.68;;;;;;;;;;5012455;28;20038;-73
2022/11/24 08:33:39;;;;;;;27.77;5.78;;;;;;;;;;5024176;28;20072;-73
2022/11/24 08:36:06;;;;;;;28.90;5.40;;;;;;;;;;5007837;28;20046;-73
2022/11/24 08:38:32;;;;;;;26.33;5.90;;;;;;;;;;5029765;28;20049;-73
2022/11/24 08:41:02;;;;;;;34.20;6.00;;;;;;;;;;5032369;28;20049;-73
2022/11/24 08:43:28;;;;;;;26.88;5.90;;;;;;;;;;5018501;28;20042;-73
2022/11/24 08:45:54;;;;;;;29.73;6.32;;;;;;;;;;5022073;28;20136;-73
2022/11/24 08:48:20;;;;;;;24.30;5.90;;;;;;;;;;5014132;28;20511;-72
2022/11/24 08:50:46;;;;;;;30.85;6.28;;;;;;;;;;5015826;28;20041;-73
2022/11/24 08:53:12;;;;;;;27.15;6.30;;;;;;;;;;5023583;28;20089;-72
2022/11/24 08:55:38;;;;;;;26.48;5.97;;;;;;;;;;5013824;28;20108;-72
2022/11/24 08:58:04;;;;;;;22.38;5.65;;;;;;;;;;5011657;28;20057;-73
2022/11/24 09:00:30;;;;;;;19.90;5.47;;;;;;;;;;5012004;28;20042;-73
2022/11/24 09:02:57;;;;;;;22.95;5.47;;;;;;;;;;5021669;28;20491;-73
2022/11/24 09:05:23;;;;;;;23.00;5.57;;;;;;;;;;5022547;28;20080;-72
2022/11/24 09:07:49;;;;;;;19.25;5.07;;;;;;;;;;5015033;28;20048;-73
2022/11/24 09:10:15;;;;;;;21.55;5.10;;;;;;;;;;5011868;28;20045;-72
2022/11/24 09:12:43;;;;;;;18.75;5.22;;;;;;;;;;5012213;28;20400;-73
2022/11/24 09:15:09;;;;;;;19.33;4.90;;;;;;;;;;5011837;28;20053;-73
2022/11/24 09:17:35;;;;;;;20.55;4.93;;;;;;;;;;5012026;28;20050;-73
2022/11/24 09:20:02;;;;;;;19.48;4.50;;;;;;;;;;5011865;28;20049;-73
2022/11/24 09:22:30;;;;;;;18.70;4.32;;;;;;;;;;4994942;28;20041;-73
2022/11/24 09:24:56;;;;;;;19.77;5.18;;;;;;;;;;5018248;28;20077;-73
2022/11/24 09:27:22;;;;;;;16.25;3.95;;;;;;;;;;5020324;28;20185;-73
2022/11/24 09:29:48;;;;;;;14.30;3.97;;;;;;;;;;5027146;28;20080;-73
2022/11/24 09:32:14;;;;;;;17.33;4.10;;;;;;;;;;5030050;28;20060;-73
2022/11/24 09:34:40;;;;;;;17.33;4.60;;;;;;;;;;5034666;28;20045;-73
2022/11/24 09:37:06;;;;;;;15.20;3.70;;;;;;;;;;5034909;28;20048;-73
2022/11/24 09:39:32;;;;;;;15.20;3.85;;;;;;;;;;5024003;28;20042;-73
2022/11/24 09:42:01;;;;;;;15.20;4.40;;;;;;;;;;5015243;28;20123;-73
2022/11/24 09:44:45;;;;;;;12.43;3.95;;;;;;;;;;5031621;28;20068;-74
2022/11/24 09:47:11;;;;;;;14.05;3.88;;;;;;;;;;5027254;28;20132;-72
2022/11/24 09:49:43;;;;;;;13.35;3.85;;;;;;;;;;5016285;28;20042;-73
2022/11/24 09:52:12;;;;;;;12.68;3.42;;;;;;;;;;5017778;28;20080;-73
2022/11/24 09:54:40;;;;;;;13.82;3.55;;;;;;;;;;5015111;28;20099;-72
2022/11/24 09:57:06;;;;;;;12.88;3.60;;;;;;;;;;5000529;28;20081;-72
2022/11/24 09:59:33;;;;;;;11.35;3.10;;;;;;;;;;4998524;28;20515;-72
2022/11/24 10:01:59;;;;;;;11.48;3.75;;;;;;;;;;5017656;28;20120;-73
2022/11/24 10:04:27;;;;;;;12.75;3.50;;;;;;;;;;5015385;28;20485;-72
2022/11/24 10:06:56;;;;;;;11.45;2.95;;;;;;;;;;5017640;28;20165;-72
2022/11/24 10:09:36;;;;;;;13.65;3.30;;;;;;;;;;5017912;28;20452;-72
2022/11/24 10:12:19;;;;;;;12.80;2.70;;;;;;;;;;4998584;28;20049;-72
2022/11/24 10:15:18;;;;;;;10.98;3.22;;;;;;;;;;5015952;28;20065;-72
2022/11/24 10:17:47;;;;;;;12.02;3.42;;;;;;;;;;4963231;28;20054;-72
2022/11/24 10:20:43;;;;;;;12.90;3.50;;;;;;;;;;5018100;28;20161;-72
2022/11/24 10:23:18;;;;;;;11.30;3.10;;;;;;;;;;4918606;29;20060;-72
2022/11/24 10:26:00;;;;;;;10.95;3.10;;;;;;;;;;4933123;29;20044;-72
2022/11/24 10:28:33;;;;;;;10.68;3.03;;;;;;;;;;4934887;29;20060;-73
2022/11/24 10:31:13;;;;;;;8.55;2.90;;;;;;;;;;4923674;29;20114;-72
2022/11/24 10:33:39;;;;;;;8.70;2.80;;;;;;;;;;4930088;29;20206;-72
2022/11/24 10:36:11;;;;;;;8.38;2.88;;;;;;;;;;4933375;29;20453;-72
2022/11/24 10:38:41;;;;;;;11.02;3.35;;;;;;;;;;4927177;29;20048;-72
2022/11/24 10:41:11;;;;;;;11.63;3.50;;;;;;;;;;4928180;29;20451;-72
2022/11/24 10:43:40;;;;;;;11.48;4.03;;;;;;;;;;4925434;29;20043;-72
2022/11/24 10:46:21;;;;;;;9.98;3.53;;;;;;;;;;4919566;29;20582;-72
2022/11/24 10:48:50;;;;;;;11.25;3.55;;;;;;;;;;4934216;29;20040;-72
2022/11/24 10:51:28;;;;;;;9.23;3.55;;;;;;;;;;4934506;29;20355;-73
2022/11/24 10:53:59;;;;;;;9.50;3.90;;;;;;;;;;4918524;29;20062;-73
2022/11/24 10:56:25;;;;;;;10.38;3.75;;;;;;;;;;4934395;29;20082;-73
2022/11/24 10:58:51;;;;;;;9.90;3.28;;;;;;;;;;4952151;28;20050;-72
2022/11/24 11:01:17;;;;;;;9.30;3.55;;;;;;;;;;5016356;28;20501;-72
2022/11/24 11:03:55;;;;;;;10.85;4.05;;;;;;;;;;5013896;28;20443;-73
2022/11/24 11:06:23;;;;;;;14.30;5.43;;;;;;;;;;5013724;28;20088;-72
2022/11/24 11:08:49;;;;;;;18.60;6.93;;;;;;;;;;5014939;28;20046;-72
2022/11/24 11:11:29;;;;;;;15.43;5.18;;;;;;;;;;5013879;28;20046;-73
2022/11/24 11:13:58;;;;;;;9.82;5.82;;;;;;;;;;5013706;28;20381;-73
2022/11/24 11:16:27;;;;;;;11.40;6.03;;;;;;;;;;5013463;28;20045;-73
2022/11/24 11:18:53;;;;;;;15.48;6.30;;;;;;;;;;5015632;28;20393;-72
2022/11/24 11:21:38;;;;;;;13.55;5.88;;;;;;;;;;5012902;28;20057;-72
2022/11/24 11:24:12;;;;;;;13.88;5.30;;;;;;;;;;5029002;28;20140;-73
2022/11/24 11:26:40;;;;;;;11.60;6.10;;;;;;;;;;5033443;28;20045;-73
2022/11/24 11:29:06;;;;;;;14.02;6.60;;;;;;;;;;5023661;28;20045;-73
2022/11/24 11:31:32;;;;;;;14.30;7.30;;;;;;;;;;5033577;28;20045;-73
2022/11/24 11:34:17;;;;;;;26.20;13.88;;;;;;;;;;5031174;28;20403;-73
2022/11/24 11:36:48;;;;;;;19.85;9.43;;;;;;;;;;4995662;28;20062;-73
2022/11/24 11:39:14;;;;;;;;;;;;;;;;;;4996248;28;20135;-73
2022/11/24 11:41:42;;;;;;;13.98;5.65;;;;;;;;;;5013149;28;20071;-73
2022/11/24 11:44:13;;;;;;;13.32;6.50;;;;;;;;;;5003093;28;20057;-74
2022/11/24 11:46:41;;;;;;;15.30;6.50;;;;;;;;;;5031424;28;20417;-73
2022/11/24 11:49:09;;;;;;;14.57;5.80;;;;;;;;;;5014752;28;20046;-72
2022/11/24 11:51:54;;;;;;;11.00;5.63;;;;;;;;;;5007713;28;20048;-72
2022/11/24 11:54:39;;;;;;;13.52;5.60;;;;;;;;;;5016699;28;20045;-72
2022/11/24 11:57:12;;;;;;;11.95;5.38;;;;;;;;;;5019989;28;20093;-73
2022/11/24 11:59:44;;;;;;;12.25;5.47;;;;;;;;;;5020197;28;20385;-73
2022/11/24 12:02:26;;;;;;;15.00;6.13;;;;;;;;;;5015748;28;20049;-73
2022/11/24 12:04:54;;;;;;;12.50;6.60;;;;;;;;;;5021203;28;20041;-73
2022/11/24 12:07:35;;;;;;;14.63;8.70;;;;;;;;;;5030402;28;20041;-73
2022/11/24 12:10:04;;;;;;;14.27;7.17;;;;;;;;;;5029898;28;20045;-73
2022/11/24 12:12:33;;;;;;;14.25;6.70;;;;;;;;;;5020029;28;20308;-72
2022/11/24 12:15:03;;;;;;;15.27;6.20;;;;;;;;;;5027560;28;20045;-73
2022/11/24 12:17:48;;;;;;;13.02;6.82;;;;;;;;;;5031592;28;20045;-73
2022/11/24 12:20:14;;;;;;;14.52;6.65;;;;;;;;;;5031065;28;20045;-73
2022/11/24 12:23:00;;;;;;;13.65;6.60;;;;;;;;;;5029145;28;20496;-73
2022/11/24 12:25:33;;;;;;;12.85;6.80;;;;;;;;;;5032151;28;20045;-74
2022/11/24 12:28:05;;;;;;;15.02;7.03;;;;;;;;;;5032424;28;20049;-74
2022/11/24 12:30:37;;;;;;;19.77;6.85;;;;;;;;;;5022157;28;20424;-74
2022/11/24 12:33:20;;;;;;;16.58;7.32;;;;;;;;;;5025676;28;20512;-74
2022/11/24 12:35:48;;;;;;;16.08;6.47;;;;;;;;;;5032634;28;20049;-73
2022/11/24 12:38:33;;;;;;;17.02;6.80;;;;;;;;;;5031370;28;20396;-73
2022/11/24 12:41:17;;;;;;;14.80;6.47;;;;;;;;;;5032258;28;20049;-73
2022/11/24 12:43:51;;;;;;;15.75;6.50;;;;;;;;;;5018232;28;20408;-74
2022/11/24 12:46:25;;;;;;;14.63;5.53;;;;;;;;;;5016760;28;20049;-73
2022/11/24 12:48:57;;;;;;;16.42;5.78;;;;;;;;;;5014874;28;20042;-73
2022/11/24 12:51:38;;;;;;;14.90;5.57;;;;;;;;;;5020625;28;20041;-74
2022/11/24 12:54:06;;;;;;;16.15;6.00;;;;;;;;;;5021137;28;20401;-74
2022/11/24 12:56:42;;;;;;;14.40;6.10;;;;;;;;;;5047952;28;20130;-74
2022/11/24 12:59:44;;;;;;;14.85;5.72;;;;;;;;;;5026805;28;20109;-74
2022/11/24 13:02:27;;;;;;;17.08;6.32;;;;;;;;;;4944559;29;20452;-73
2022/11/24 13:04:58;;;;;;;17.23;6.25;;;;;;;;;;4952375;29;20055;-75
2022/11/24 13:07:36;;;;;;;17.33;6.10;;;;;;;;;;4939763;29;20169;-66
2022/11/24 13:10:21;;;;;;;19.17;6.00;;;;;;;;;;4954976;29;20506;-65
2022/11/24 13:12:53;;;;;;;16.15;6.03;;;;;;;;;;4955615;29;20043;-66
2022/11/24 13:15:19;;;;;;;18.77;6.68;;;;;;;;;;4955314;29;20102;-66
2022/11/24 13:17:45;;;;;;;18.40;8.63;;;;;;;;;;4953972;29;20047;-66
2022/11/24 13:20:14;;;;;;;20.27;7.65;;;;;;;;;;4942376;29;20462;-65
2022/11/24 13:22:46;;;;;;;18.35;7.05;;;;;;;;;;4936086;29;20060;-65
2022/11/24 13:25:14;;;;;;;17.45;6.68;;;;;;;;;;4936146;29;20177;-65
2022/11/24 13:27:44;;;;;;;15.52;6.65;;;;;;;;;;4936118;29;20090;-65
2022/11/24 13:30:28;;;;;;;18.50;6.85;;;;;;;;;;4943682;29;20078;-66
2022/11/24 13:33:01;;;;;;;17.88;7.78;;;;;;;;;;4946680;29;20610;-65
2022/11/24 13:35:28;;;;;;;17.25;6.72;;;;;;;;;;4965894;28;20054;-65
2022/11/24 13:37:54;;;;;;;15.18;6.57;;;;;;;;;;5014422;28;20404;-65
2022/11/24 13:40:21;;;;;;;20.83;6.63;;;;;;;;;;5024401;28;20140;-65
2022/11/24 13:42:56;;;;;;;15.55;6.68;;;;;;;;;;5035368;28;20124;-65
2022/11/24 13:45:40;;;;;;;13.80;6.40;;;;;;;;;;5023331;28;20108;-66
2022/11/24 13:48:18;;;;;;;19.48;7.00;;;;;;;;;;5017721;28;20080;-65
2022/11/24 13:50:53;;;;;;;17.85;5.90;;;;;;;;;;5014671;28;20044;-66
2022/11/24 13:53:19;;;;;;;19.45;6.85;;;;;;;;;;5015306;28;20048;-66
2022/11/24 13:55:54;;;;;;;15.18;6.20;;;;;;;;;;5015030;28;20404;-65
2022/11/24 13:58:26;;;;;;;18.13;6.25;;;;;;;;;;5014751;28;20045;-66
2022/11/24 14:00:54;;;;;;;18.08;6.70;;;;;;;;;;5017359;28;20108;-66
2022/11/24 14:03:33;;;;;;;18.55;7.30;;;;;;;;;;5034863;28;20033;-66
2022/11/24 14:06:00;;;;;;;19.80;6.50;;;;;;;;;;5034549;28;20433;-66
2022/11/24 14:08:28;;;;;;;25.10;6.82;;;;;;;;;;5034914;28;20048;-66
2022/11/24 14:10:57;;;;;;;21.13;7.30;;;;;;;;;;5034106;28;20045;-67
2022/11/24 14:13:24;;;;;;;21.48;6.88;;;;;;;;;;5022217;28;20042;-76
2022/11/24 14:16:01;;;;;;;19.77;6.85;;;;;;;;;;5013996;28;20527;-74
2022/11/24 14:18:30;;;;;;;18.67;6.85;;;;;;;;;;5014608;28;20180;-74
2022/11/24 14:20:56;;;;;;;18.23;6.60;;;;;;;;;;5014381;28;20053;-73
2022/11/24 14:23:23;;;;;;;17.20;7.10;;;;;;;;;;5017066;28;20183;-74
2022/11/24 14:25:49;;;;;;;18.60;6.28;;;;;;;;;;5001347;28;20054;-74
2022/11/24 14:28:25;;;;;;;23.50;6.47;;;;;;;;;;5031176;28;20468;-74
2022/11/24 14:31:05;;;;;;;22.48;6.32;;;;;;;;;;5034475;28;20133;-73
2022/11/24 14:33:31;;;;;;;22.40;6.40;;;;;;;;;;5034515;28;20056;-74
2022/11/24 14:35:57;;;;;;;22.30;6.43;;;;;;;;;;5020765;28;20050;-74
2022/11/24 14:38:23;;;;;;;24.90;7.18;;;;;;;;;;5014364;28;20042;-74
2022/11/24 14:40:50;;;;;;;20.63;6.65;;;;;;;;;;5014165;28;20061;-74
2022/11/24 14:43:21;;;;;;;22.42;6.07;;;;;;;;;;5014341;28;20378;-74
2022/11/24 14:45:51;;;;;;;19.88;5.90;;;;;;;;;;5014272;28;20058;-74